sensor_id;sensor_type;location;lat;lon;timestamp;temperature;humidity
26182;DHT22;13927;51.534;11.866;2022-12-29T00:01:35;8.60;99.90
26182;DHT22;13927;51.534;11.866;2022-12-29T00:04:01;8.60;99.90
26182;DHT22;13927;51.534;11.866;2022-12-29T00:06:28;8.60;99.90
26182;DHT22;13927;51.534;11.866;2022-12-29T00:08:54;8.70;99.90
26182;DHT22;13927;51.534;11.866;2022-12-29T00:11:22;8.60;99.90
26182;DHT22;13927;51.534;11.866;2022-12-29T00:13:50;8.70;99.90
26182;DHT22;13927;51.534;11.866;2022-12-29T00:16:35;8.70;99.90
26182;DHT22;13927;51.534;11.866;2022-12-29T00:19:02;8.70;99.90
26182;DHT22;13927;51.534;11.866;2022-12-29T00:21:28;8.70;99.90
26182;DHT22;13927;51.534;11.866;2022-12-29T00:24:15;8.70;99.90
26182;DHT22;13927;51.534;11.866;2022-12-29T00:26:58;8.70;99.90
26182;DHT22;13927;51.534;11.866;2022-12-29T00:29:56;8.70;99.90
26182;DHT22;13927;51.534;11.866;2022-12-29T00:32:41;8.70;99.90
26182;DHT22;13927;51.534;11.866;2022-12-29T00:35:36;8.70;99.90
26182;DHT22;13927;51.534;11.866;2022-12-29T00:38:07;8.70;99.90
26182;DHT22;13927;51.534;11.866;2022-12-29T00:40:51;8.70;99.90
26182;DHT22;13927;51.534;11.866;2022-12-29T00:43:36;8.70;99.90
26182;DHT22;13927;51.534;11.866;2022-12-29T00:46:20;8.60;99.90
26182;DHT22;13927;51.534;11.866;2022-12-29T00:48:46;8.70;99.90
26182;DHT22;13927;51.534;11.866;2022-12-29T00:51:30;8.70;99.90
26182;DHT22;13927;51.534;11.866;2022-12-29T00:53:56;8.70;99.90
26182;DHT22;13927;51.534;11.866;2022-12-29T00:56:21;8.70;99.90
26182;DHT22;13927;51.534;11.866;2022-12-29T00:58:47;8.80;99.90
26182;DHT22;13927;51.534;11.866;2022-12-29T01:01:13;8.80;99.90
26182;DHT22;13927;51.534;11.866;2022-12-29T01:03:38;8.80;99.90
26182;DHT22;13927;51.534;11.866;2022-12-29T01:06:06;8.80;99.90
26182;DHT22;13927;51.534;11.866;2022-12-29T01:08:34;8.80;99.90
26182;DHT22;13927;51.534;11.866;2022-12-29T01:11:04;8.70;99.90
26182;DHT22;13927;51.534;11.866;2022-12-29T01:13:32;8.70;99.90
26182;DHT22;13927;51.534;11.866;2022-12-29T01:15:58;8.70;99.90
26182;DHT22;13927;51.534;11.866;2022-12-29T01:18:24;8.70;99.90
26182;DHT22;13927;51.534;11.866;2022-12-29T01:20:51;8.80;99.90
26182;DHT22;13927;51.534;11.866;2022-12-29T01:23:16;9.00;99.90
26182;DHT22;13927;51.534;11.866;2022-12-29T01:25:42;9.20;99.90
26182;DHT22;13927;51.534;11.866;2022-12-29T01:28:08;9.30;99.90
26182;DHT22;13927;51.534;11.866;2022-12-29T01:30:35;9.50;99.90
26182;DHT22;13927;51.534;11.866;2022-12-29T01:33:01;9.60;99.90
26182;DHT22;13927;51.534;11.866;2022-12-29T01:35:27;9.60;99.90
26182;DHT22;13927;51.534;11.866;2022-12-29T01:37:53;9.60;99.90
26182;DHT22;13927;51.534;11.866;2022-12-29T01:40:19;9.70;99.90
26182;DHT22;13927;51.534;11.866;2022-12-29T01:42:45;9.70;99.90
26182;DHT22;13927;51.534;11.866;2022-12-29T01:45:13;9.70;99.90
26182;DHT22;13927;51.534;11.866;2022-12-29T01:47:57;9.60;99.90
26182;DHT22;13927;51.534;11.866;2022-12-29T01:50:30;9.60;99.90
26182;DHT22;13927;51.534;11.866;2022-12-29T01:53:10;9.50;99.90
26182;DHT22;13927;51.534;11.866;2022-12-29T01:55:46;9.40;99.90
26182;DHT22;13927;51.534;11.866;2022-12-29T01:58:15;9.30;99.90
26182;DHT22;13927;51.534;11.866;2022-12-29T02:00:43;9.20;99.90
26182;DHT22;13927;51.534;11.866;2022-12-29T02:03:09;9.20;99.90
26182;DHT22;13927;51.534;11.866;2022-12-29T02:08:03;9.20;99.90
26182;DHT22;13927;51.534;11.866;2022-12-29T02:10:31;9.20;99.90
26182;DHT22;13927;51.534;11.866;2022-12-29T02:12:58;9.20;99.90
26182;DHT22;13927;51.534;11.866;2022-12-29T02:16:06;9.20;99.90
26182;DHT22;13927;51.534;11.866;2022-12-29T02:18:51;9.30;99.90
26182;DHT22;13927;51.534;11.866;2022-12-29T02:21:56;9.30;99.90
26182;DHT22;13927;51.534;11.866;2022-12-29T02:27:36;9.40;99.90
26182;DHT22;13927;51.534;11.866;2022-12-29T02:30:36;9.40;99.90
26182;DHT22;13927;51.534;11.866;2022-12-29T02:36:39;9.50;99.90
26182;DHT22;13927;51.534;11.866;2022-12-29T02:39:23;9.50;99.90
26182;DHT22;13927;51.534;11.866;2022-12-29T02:42:04;9.50;99.90
26182;DHT22;13927;51.534;11.866;2022-12-29T02:47:53;9.50;99.90
26182;DHT22;13927;51.534;11.866;2022-12-29T02:50:35;9.60;99.90
26182;DHT22;13927;51.534;11.866;2022-12-29T02:53:07;9.60;99.90
26182;DHT22;13927;51.534;11.866;2022-12-29T02:55:35;9.60;99.90
26182;DHT22;13927;51.534;11.866;2022-12-29T03:07:18;9.50;99.90
26182;DHT22;13927;51.534;11.866;2022-12-29T03:15:36;9.60;99.90
26182;DHT22;13927;51.534;11.866;2022-12-29T03:21:37;9.60;99.90
26182;DHT22;13927;51.534;11.866;2022-12-29T03:24:29;9.70;99.90
26182;DHT22;13927;51.534;11.866;2022-12-29T03:26:59;9.60;99.90
26182;DHT22;13927;51.534;11.866;2022-12-29T03:29:29;9.60;99.90
26182;DHT22;13927;51.534;11.866;2022-12-29T03:31:58;9.70;99.90
26182;DHT22;13927;51.534;11.866;2022-12-29T03:34:25;9.70;99.90
26182;DHT22;13927;51.534;11.866;2022-12-29T03:37:00;9.70;99.90
26182;DHT22;13927;51.534;11.866;2022-12-29T03:39:28;9.70;99.90
26182;DHT22;13927;51.534;11.866;2022-12-29T03:41:58;9.70;99.90
26182;DHT22;13927;51.534;11.866;2022-12-29T03:44:36;9.70;99.90
26182;DHT22;13927;51.534;11.866;2022-12-29T03:47:05;9.70;99.90
26182;DHT22;13927;51.534;11.866;2022-12-29T03:49:32;9.80;99.90
26182;DHT22;13927;51.534;11.866;2022-12-29T03:51:57;9.80;99.90
26182;DHT22;13927;51.534;11.866;2022-12-29T03:54:23;9.70;99.90
26182;DHT22;13927;51.534;11.866;2022-12-29T03:56:49;9.80;99.90
26182;DHT22;13927;51.534;11.866;2022-12-29T03:59:15;9.80;99.90
26182;DHT22;13927;51.534;11.866;2022-12-29T04:01:41;9.80;99.90
26182;DHT22;13927;51.534;11.866;2022-12-29T04:04:07;9.80;99.90
26182;DHT22;13927;51.534;11.866;2022-12-29T04:06:32;9.80;99.90
26182;DHT22;13927;51.534;11.866;2022-12-29T04:08:58;9.80;99.90
26182;DHT22;13927;51.534;11.866;2022-12-29T04:11:24;9.80;99.90
26182;DHT22;13927;51.534;11.866;2022-12-29T04:13:50;9.90;99.90
26182;DHT22;13927;51.534;11.866;2022-12-29T04:16:15;9.90;99.90
26182;DHT22;13927;51.534;11.866;2022-12-29T04:18:41;9.90;99.90
26182;DHT22;13927;51.534;11.866;2022-12-29T04:21:07;9.90;99.90
26182;DHT22;13927;51.534;11.866;2022-12-29T04:23:35;9.90;99.90
26182;DHT22;13927;51.534;11.866;2022-12-29T04:26:02;10.00;99.90
26182;DHT22;13927;51.534;11.866;2022-12-29T04:28:28;10.00;99.90
26182;DHT22;13927;51.534;11.866;2022-12-29T04:30:54;10.00;99.90
26182;DHT22;13927;51.534;11.866;2022-12-29T04:33:21;10.00;99.90
26182;DHT22;13927;51.534;11.866;2022-12-29T04:35:47;10.00;99.90
26182;DHT22;13927;51.534;11.866;2022-12-29T04:38:14;10.10;99.90
26182;DHT22;13927;51.534;11.866;2022-12-29T04:40:44;10.10;99.90
26182;DHT22;13927;51.534;11.866;2022-12-29T04:43:10;10.10;99.90
26182;DHT22;13927;51.534;11.866;2022-12-29T04:45:35;10.20;99.90
26182;DHT22;13927;51.534;11.866;2022-12-29T04:48:01;10.20;99.90
26182;DHT22;13927;51.534;11.866;2022-12-29T04:50:27;10.30;99.90
26182;DHT22;13927;51.534;11.866;2022-12-29T04:52:53;10.30;99.90
26182;DHT22;13927;51.534;11.866;2022-12-29T04:55:18;10.30;99.90
26182;DHT22;13927;51.534;11.866;2022-12-29T04:57:44;10.30;99.90
26182;DHT22;13927;51.534;11.866;2022-12-29T05:00:10;10.30;99.90
26182;DHT22;13927;51.534;11.866;2022-12-29T05:02:37;10.30;99.90
26182;DHT22;13927;51.534;11.866;2022-12-29T05:05:04;10.30;99.90
26182;DHT22;13927;51.534;11.866;2022-12-29T05:07:30;10.20;99.90
26182;DHT22;13927;51.534;11.866;2022-12-29T05:09:58;10.10;99.90
26182;DHT22;13927;51.534;11.866;2022-12-29T05:12:24;10.10;99.90
26182;DHT22;13927;51.534;11.866;2022-12-29T05:14:50;10.10;99.90
26182;DHT22;13927;51.534;11.866;2022-12-29T05:17:15;10.10;99.90
26182;DHT22;13927;51.534;11.866;2022-12-29T05:19:41;10.00;99.90
26182;DHT22;13927;51.534;11.866;2022-12-29T05:22:07;10.00;99.90
26182;DHT22;13927;51.534;11.866;2022-12-29T05:24:32;10.00;99.90
26182;DHT22;13927;51.534;11.866;2022-12-29T05:26:58;9.90;99.90
26182;DHT22;13927;51.534;11.866;2022-12-29T05:29:24;9.90;99.90
26182;DHT22;13927;51.534;11.866;2022-12-29T05:31:49;10.00;99.90
26182;DHT22;13927;51.534;11.866;2022-12-29T05:34:15;10.00;99.90
26182;DHT22;13927;51.534;11.866;2022-12-29T05:36:41;10.00;99.90
26182;DHT22;13927;51.534;11.866;2022-12-29T05:39:06;10.00;99.90
26182;DHT22;13927;51.534;11.866;2022-12-29T05:41:35;10.00;99.90
26182;DHT22;13927;51.534;11.866;2022-12-29T05:44:00;10.00;99.90
26182;DHT22;13927;51.534;11.866;2022-12-29T05:46:27;10.00;99.90
26182;DHT22;13927;51.534;11.866;2022-12-29T05:48:52;10.10;99.90
26182;DHT22;13927;51.534;11.866;2022-12-29T05:51:18;10.10;99.90
26182;DHT22;13927;51.534;11.866;2022-12-29T05:53:44;10.00;99.90
26182;DHT22;13927;51.534;11.866;2022-12-29T05:56:09;10.00;99.90
26182;DHT22;13927;51.534;11.866;2022-12-29T05:58:35;10.00;99.90
26182;DHT22;13927;51.534;11.866;2022-12-29T06:01:01;10.00;99.90
26182;DHT22;13927;51.534;11.866;2022-12-29T06:03:26;9.90;99.90
26182;DHT22;13927;51.534;11.866;2022-12-29T06:05:52;9.90;99.90
26182;DHT22;13927;51.534;11.866;2022-12-29T06:08:18;9.80;99.90
26182;DHT22;13927;51.534;11.866;2022-12-29T06:10:43;9.60;99.90
26182;DHT22;13927;51.534;11.866;2022-12-29T06:13:09;9.60;99.90
26182;DHT22;13927;51.534;11.866;2022-12-29T06:15:35;9.50;99.90
26182;DHT22;13927;51.534;11.866;2022-12-29T06:18:01;9.40;99.90
26182;DHT22;13927;51.534;11.866;2022-12-29T06:20:27;9.40;99.90
26182;DHT22;13927;51.534;11.866;2022-12-29T06:22:53;9.30;99.90
26182;DHT22;13927;51.534;11.866;2022-12-29T06:25:20;9.40;99.90
26182;DHT22;13927;51.534;11.866;2022-12-29T06:27:45;9.40;99.90
26182;DHT22;13927;51.534;11.866;2022-12-29T06:30:11;9.30;99.90
26182;DHT22;13927;51.534;11.866;2022-12-29T06:32:38;9.40;99.90
26182;DHT22;13927;51.534;11.866;2022-12-29T06:35:04;9.50;99.90
26182;DHT22;13927;51.534;11.866;2022-12-29T06:37:33;9.60;99.90
26182;DHT22;13927;51.534;11.866;2022-12-29T06:39:59;9.60;99.90
26182;DHT22;13927;51.534;11.866;2022-12-29T06:42:25;9.60;99.90
26182;DHT22;13927;51.534;11.866;2022-12-29T06:44:50;9.60;99.90
26182;DHT22;13927;51.534;11.866;2022-12-29T06:47:22;9.70;99.90
26182;DHT22;13927;51.534;11.866;2022-12-29T06:49:47;9.60;99.90
26182;DHT22;13927;51.534;11.866;2022-12-29T06:52:13;9.60;99.90
26182;DHT22;13927;51.534;11.866;2022-12-29T06:54:39;9.60;99.90
26182;DHT22;13927;51.534;11.866;2022-12-29T06:57:05;9.60;99.90
26182;DHT22;13927;51.534;11.866;2022-12-29T06:59:30;9.60;99.90
26182;DHT22;13927;51.534;11.866;2022-12-29T07:01:56;9.60;99.90
26182;DHT22;13927;51.534;11.866;2022-12-29T07:04:22;9.60;99.90
26182;DHT22;13927;51.534;11.866;2022-12-29T07:06:47;9.70;99.90
26182;DHT22;13927;51.534;11.866;2022-12-29T07:09:13;9.80;99.90
26182;DHT22;13927;51.534;11.866;2022-12-29T07:11:39;9.90;99.90
26182;DHT22;13927;51.534;11.866;2022-12-29T07:14:04;10.00;99.90
26182;DHT22;13927;51.534;11.866;2022-12-29T07:16:31;10.10;99.90
26182;DHT22;13927;51.534;11.866;2022-12-29T07:18:57;10.20;99.90
26182;DHT22;13927;51.534;11.866;2022-12-29T07:21:24;10.30;99.90
26182;DHT22;13927;51.534;11.866;2022-12-29T07:23:50;10.30;99.90
26182;DHT22;13927;51.534;11.866;2022-12-29T07:26:16;10.30;99.90
26182;DHT22;13927;51.534;11.866;2022-12-29T07:28:45;10.20;99.90
26182;DHT22;13927;51.534;11.866;2022-12-29T07:31:15;10.20;99.90
26182;DHT22;13927;51.534;11.866;2022-12-29T07:33:42;10.20;99.90
26182;DHT22;13927;51.534;11.866;2022-12-29T07:36:09;10.20;99.90
26182;DHT22;13927;51.534;11.866;2022-12-29T07:38:35;10.10;99.90
26182;DHT22;13927;51.534;11.866;2022-12-29T07:41:01;10.10;99.90
26182;DHT22;13927;51.534;11.866;2022-12-29T07:43:27;10.10;99.90
26182;DHT22;13927;51.534;11.866;2022-12-29T07:45:53;10.00;99.90
26182;DHT22;13927;51.534;11.866;2022-12-29T07:48:19;10.00;99.90
26182;DHT22;13927;51.534;11.866;2022-12-29T07:50:44;10.00;99.90
26182;DHT22;13927;51.534;11.866;2022-12-29T07:53:10;10.00;99.90
26182;DHT22;13927;51.534;11.866;2022-12-29T07:55:36;10.00;99.90
26182;DHT22;13927;51.534;11.866;2022-12-29T07:58:02;10.10;99.90
26182;DHT22;13927;51.534;11.866;2022-12-29T08:00:27;10.20;99.90
26182;DHT22;13927;51.534;11.866;2022-12-29T08:02:53;10.30;99.90
26182;DHT22;13927;51.534;11.866;2022-12-29T08:05:19;10.30;99.90
26182;DHT22;13927;51.534;11.866;2022-12-29T08:07:46;10.40;99.90
26182;DHT22;13927;51.534;11.866;2022-12-29T08:10:12;10.50;99.90
26182;DHT22;13927;51.534;11.866;2022-12-29T08:12:39;10.60;99.90
26182;DHT22;13927;51.534;11.866;2022-12-29T08:15:07;10.60;99.90
26182;DHT22;13927;51.534;11.866;2022-12-29T08:17:33;10.70;99.90
26182;DHT22;13927;51.534;11.866;2022-12-29T08:19:59;10.80;99.90
26182;DHT22;13927;51.534;11.866;2022-12-29T08:22:25;10.80;99.90
26182;DHT22;13927;51.534;11.866;2022-12-29T08:24:51;10.90;99.90
26182;DHT22;13927;51.534;11.866;2022-12-29T08:27:18;10.90;99.90
26182;DHT22;13927;51.534;11.866;2022-12-29T08:29:44;11.00;99.90
26182;DHT22;13927;51.534;11.866;2022-12-29T08:32:10;11.00;99.90
26182;DHT22;13927;51.534;11.866;2022-12-29T08:34:36;11.10;99.90
26182;DHT22;13927;51.534;11.866;2022-12-29T08:37:02;11.10;99.90
26182;DHT22;13927;51.534;11.866;2022-12-29T08:39:27;11.20;99.90
26182;DHT22;13927;51.534;11.866;2022-12-29T08:41:53;11.20;99.90
26182;DHT22;13927;51.534;11.866;2022-12-29T08:44:19;11.20;99.90
26182;DHT22;13927;51.534;11.866;2022-12-29T08:46:45;11.20;99.90
26182;DHT22;13927;51.534;11.866;2022-12-29T08:49:11;11.30;99.90
26182;DHT22;13927;51.534;11.866;2022-12-29T08:51:36;11.30;99.90
26182;DHT22;13927;51.534;11.866;2022-12-29T08:54:02;11.30;99.90
26182;DHT22;13927;51.534;11.866;2022-12-29T08:56:28;11.40;99.90
26182;DHT22;13927;51.534;11.866;2022-12-29T08:58:54;11.40;99.90
26182;DHT22;13927;51.534;11.866;2022-12-29T09:01:20;11.50;99.90
26182;DHT22;13927;51.534;11.866;2022-12-29T09:03:46;11.50;99.90
26182;DHT22;13927;51.534;11.866;2022-12-29T09:06:12;11.60;99.90
26182;DHT22;13927;51.534;11.866;2022-12-29T09:08:38;11.70;99.90
26182;DHT22;13927;51.534;11.866;2022-12-29T09:11:08;11.70;99.90
26182;DHT22;13927;51.534;11.866;2022-12-29T09:13:34;11.70;99.90
26182;DHT22;13927;51.534;11.866;2022-12-29T09:16:01;11.70;99.90
26182;DHT22;13927;51.534;11.866;2022-12-29T09:18:26;11.70;99.90
26182;DHT22;13927;51.534;11.866;2022-12-29T09:21:00;11.70;99.90
26182;DHT22;13927;51.534;11.866;2022-12-29T09:23:27;11.90;99.90
26182;DHT22;13927;51.534;11.866;2022-12-29T09:25:54;11.90;99.90
26182;DHT22;13927;51.534;11.866;2022-12-29T09:28:20;12.00;99.90
26182;DHT22;13927;51.534;11.866;2022-12-29T09:30:47;12.10;99.90
26182;DHT22;13927;51.534;11.866;2022-12-29T09:33:13;12.10;99.90
26182;DHT22;13927;51.534;11.866;2022-12-29T09:35:49;12.10;99.90
26182;DHT22;13927;51.534;11.866;2022-12-29T09:38:16;12.10;99.90
26182;DHT22;13927;51.534;11.866;2022-12-29T09:40:45;12.00;99.90
26182;DHT22;13927;51.534;11.866;2022-12-29T09:51:48;12.10;99.90
26182;DHT22;13927;51.534;11.866;2022-12-29T09:54:39;12.10;99.90
26182;DHT22;13927;51.534;11.866;2022-12-29T09:57:25;12.10;99.90
26182;DHT22;13927;51.534;11.866;2022-12-29T09:59:59;12.10;99.90
26182;DHT22;13927;51.534;11.866;2022-12-29T10:02:38;12.10;99.90
26182;DHT22;13927;51.534;11.866;2022-12-29T10:11:29;12.20;99.90
26182;DHT22;13927;51.534;11.866;2022-12-29T10:16:57;12.40;99.90
26182;DHT22;13927;51.534;11.866;2022-12-29T10:25:26;12.70;99.90
26182;DHT22;13927;51.534;11.866;2022-12-29T10:27:57;12.80;99.90
26182;DHT22;13927;51.534;11.866;2022-12-29T10:30:25;13.00;99.90
26182;DHT22;13927;51.534;11.866;2022-12-29T10:33:00;13.00;99.90
26182;DHT22;13927;51.534;11.866;2022-12-29T10:35:34;13.00;99.90
26182;DHT22;13927;51.534;11.866;2022-12-29T10:38:27;13.00;99.90
26182;DHT22;13927;51.534;11.866;2022-12-29T10:43:45;13.00;99.90
26182;DHT22;13927;51.534;11.866;2022-12-29T10:46:17;13.00;99.90
26182;DHT22;13927;51.534;11.866;2022-12-29T10:48:44;12.90;99.90
26182;DHT22;13927;51.534;11.866;2022-12-29T10:51:24;12.90;99.90
26182;DHT22;13927;51.534;11.866;2022-12-29T10:53:58;12.90;99.90
26182;DHT22;13927;51.534;11.866;2022-12-29T10:56:35;12.90;99.90
26182;DHT22;13927;51.534;11.866;2022-12-29T10:59:33;12.80;99.90
26182;DHT22;13927;51.534;11.866;2022-12-29T11:07:30;12.60;99.90
26182;DHT22;13927;51.534;11.866;2022-12-29T11:10:19;12.80;99.90
26182;DHT22;13927;51.534;11.866;2022-12-29T11:13:00;13.10;99.90
26182;DHT22;13927;51.534;11.866;2022-12-29T11:15:39;13.30;99.90
26182;DHT22;13927;51.534;11.866;2022-12-29T11:20:50;13.40;99.90
26182;DHT22;13927;51.534;11.866;2022-12-29T11:23:32;13.40;99.90
26182;DHT22;13927;51.534;11.866;2022-12-29T11:26:14;13.40;99.90
26182;DHT22;13927;51.534;11.866;2022-12-29T11:31:57;14.00;99.90
26182;DHT22;13927;51.534;11.866;2022-12-29T11:34:33;13.90;99.90
26182;DHT22;13927;51.534;11.866;2022-12-29T11:37:06;13.60;99.90
26182;DHT22;13927;51.534;11.866;2022-12-29T11:40:05;13.40;99.90
26182;DHT22;13927;51.534;11.866;2022-12-29T11:45:15;13.40;99.90
26182;DHT22;13927;51.534;11.866;2022-12-29T11:47:47;13.50;99.90
26182;DHT22;13927;51.534;11.866;2022-12-29T11:50:39;13.70;99.90
26182;DHT22;13927;51.534;11.866;2022-12-29T11:53:27;13.80;99.90
26182;DHT22;13927;51.534;11.866;2022-12-29T11:56:01;13.80;99.90
26182;DHT22;13927;51.534;11.866;2022-12-29T11:58:32;13.60;99.90
26182;DHT22;13927;51.534;11.866;2022-12-29T12:01:06;13.60;99.90
26182;DHT22;13927;51.534;11.866;2022-12-29T12:03:35;13.60;99.90
26182;DHT22;13927;51.534;11.866;2022-12-29T12:06:04;13.60;99.90
26182;DHT22;13927;51.534;11.866;2022-12-29T12:08:55;13.50;99.90
26182;DHT22;13927;51.534;11.866;2022-12-29T12:11:30;13.40;99.90
26182;DHT22;13927;51.534;11.866;2022-12-29T12:14:30;13.50;99.90
26182;DHT22;13927;51.534;11.866;2022-12-29T12:17:10;13.40;99.90
26182;DHT22;13927;51.534;11.866;2022-12-29T12:20:04;13.50;99.90
26182;DHT22;13927;51.534;11.866;2022-12-29T12:25:12;13.50;99.90
26182;DHT22;13927;51.534;11.866;2022-12-29T12:27:56;13.30;99.90
26182;DHT22;13927;51.534;11.866;2022-12-29T12:30:26;13.20;99.90
26182;DHT22;13927;51.534;11.866;2022-12-29T12:32:56;13.10;99.90
26182;DHT22;13927;51.534;11.866;2022-12-29T12:41:45;12.80;99.90
26182;DHT22;13927;51.534;11.866;2022-12-29T12:47:28;12.70;99.90
26182;DHT22;13927;51.534;11.866;2022-12-29T12:50:18;12.70;99.90
26182;DHT22;13927;51.534;11.866;2022-12-29T12:52:58;12.80;99.90
26182;DHT22;13927;51.534;11.866;2022-12-29T13:01:26;12.80;99.90
26182;DHT22;13927;51.534;11.866;2022-12-29T13:21:20;12.60;99.90
26182;DHT22;13927;51.534;11.866;2022-12-29T13:24:15;12.60;99.90
26182;DHT22;13927;51.534;11.866;2022-12-29T13:26:47;12.70;99.90
26182;DHT22;13927;51.534;11.866;2022-12-29T13:29:29;12.70;99.90
26182;DHT22;13927;51.534;11.866;2022-12-29T13:32:33;12.70;99.90
26182;DHT22;13927;51.534;11.866;2022-12-29T13:35:22;12.70;99.90
26182;DHT22;13927;51.534;11.866;2022-12-29T13:38:13;12.60;99.90
26182;DHT22;13927;51.534;11.866;2022-12-29T13:40:47;12.60;99.90
26182;DHT22;13927;51.534;11.866;2022-12-29T13:43:16;12.50;99.90
26182;DHT22;13927;51.534;11.866;2022-12-29T13:45:43;12.50;99.90
26182;DHT22;13927;51.534;11.866;2022-12-29T13:48:47;12.50;99.90
26182;DHT22;13927;51.534;11.866;2022-12-29T13:51:18;12.40;99.90
26182;DHT22;13927;51.534;11.866;2022-12-29T14:02:20;12.30;99.90
26182;DHT22;13927;51.534;11.866;2022-12-29T14:05:05;12.20;99.90
26182;DHT22;13927;51.534;11.866;2022-12-29T14:08:02;12.20;99.90
26182;DHT22;13927;51.534;11.866;2022-12-29T14:10:38;12.20;99.90
26182;DHT22;13927;51.534;11.866;2022-12-29T14:13:17;12.20;99.90
26182;DHT22;13927;51.534;11.866;2022-12-29T14:15:56;12.20;99.90
26182;DHT22;13927;51.534;11.866;2022-12-29T14:18:25;12.30;99.90
26182;DHT22;13927;51.534;11.866;2022-12-29T14:21:17;12.30;99.90
26182;DHT22;13927;51.534;11.866;2022-12-29T14:23:46;12.30;99.90
26182;DHT22;13927;51.534;11.866;2022-12-29T14:31:46;12.10;99.90
26182;DHT22;13927;51.534;11.866;2022-12-29T14:36:51;11.90;99.90
26182;DHT22;13927;51.534;11.866;2022-12-29T14:39:39;11.90;99.90
26182;DHT22;13927;51.534;11.866;2022-12-29T14:44:49;11.90;99.90
26182;DHT22;13927;51.534;11.866;2022-12-29T14:52:48;11.70;99.90
26182;DHT22;13927;51.534;11.866;2022-12-29T14:57:45;11.70;99.90
26182;DHT22;13927;51.534;11.866;2022-12-29T15:00:23;11.50;99.90
26182;DHT22;13927;51.534;11.866;2022-12-29T15:05:43;11.30;99.90
26182;DHT22;13927;51.534;11.866;2022-12-29T15:08:12;11.20;99.90
26182;DHT22;13927;51.534;11.866;2022-12-29T15:10:47;11.20;99.90
26182;DHT22;13927;51.534;11.866;2022-12-29T15:13:23;11.20;99.90
26182;DHT22;13927;51.534;11.866;2022-12-29T15:15:51;11.10;99.90
26182;DHT22;13927;51.534;11.866;2022-12-29T15:18:22;11.00;99.90
26182;DHT22;13927;51.534;11.866;2022-12-29T15:20:57;11.00;99.90
26182;DHT22;13927;51.534;11.866;2022-12-29T15:23:30;10.90;99.90
26182;DHT22;13927;51.534;11.866;2022-12-29T15:25:59;10.90;99.90
26182;DHT22;13927;51.534;11.866;2022-12-29T15:28:28;10.80;99.90
26182;DHT22;13927;51.534;11.866;2022-12-29T15:31:05;10.80;99.90
26182;DHT22;13927;51.534;11.866;2022-12-29T15:33:38;10.80;99.90
26182;DHT22;13927;51.534;11.866;2022-12-29T15:36:29;10.80;99.90
26182;DHT22;13927;51.534;11.866;2022-12-29T15:39:23;10.80;99.90
26182;DHT22;13927;51.534;11.866;2022-12-29T15:41:56;10.80;99.90
26182;DHT22;13927;51.534;11.866;2022-12-29T15:44:43;10.70;99.90
26182;DHT22;13927;51.534;11.866;2022-12-29T15:47:24;10.70;99.90
26182;DHT22;13927;51.534;11.866;2022-12-29T15:49:53;10.70;99.90
26182;DHT22;13927;51.534;11.866;2022-12-29T15:52:26;10.70;99.90
26182;DHT22;13927;51.534;11.866;2022-12-29T15:54:54;10.70;99.90
26182;DHT22;13927;51.534;11.866;2022-12-29T15:57:31;10.70;99.90
26182;DHT22;13927;51.534;11.866;2022-12-29T16:00:17;10.60;99.90
26182;DHT22;13927;51.534;11.866;2022-12-29T16:02:48;10.60;99.90
26182;DHT22;13927;51.534;11.866;2022-12-29T16:05:17;10.60;99.90
26182;DHT22;13927;51.534;11.866;2022-12-29T16:07:58;10.50;99.90
26182;DHT22;13927;51.534;11.866;2022-12-29T16:10:39;10.50;99.90
26182;DHT22;13927;51.534;11.866;2022-12-29T16:13:19;10.50;99.90
26182;DHT22;13927;51.534;11.866;2022-12-29T16:15:52;10.40;99.90
26182;DHT22;13927;51.534;11.866;2022-12-29T16:18:34;10.40;99.90
26182;DHT22;13927;51.534;11.866;2022-12-29T16:21:02;10.40;99.90
26182;DHT22;13927;51.534;11.866;2022-12-29T16:23:30;10.30;99.90
26182;DHT22;13927;51.534;11.866;2022-12-29T16:25:57;10.20;99.90
26182;DHT22;13927;51.534;11.866;2022-12-29T16:28:39;10.20;99.90
26182;DHT22;13927;51.534;11.866;2022-12-29T16:31:23;10.10;99.90
26182;DHT22;13927;51.534;11.866;2022-12-29T16:37:04;10.00;99.90
26182;DHT22;13927;51.534;11.866;2022-12-29T16:39:44;10.00;99.90
26182;DHT22;13927;51.534;11.866;2022-12-29T16:42:49;10.00;99.90
26182;DHT22;13927;51.534;11.866;2022-12-29T16:50:31;9.90;99.90
26182;DHT22;13927;51.534;11.866;2022-12-29T16:52:58;9.90;99.90
26182;DHT22;13927;51.534;11.866;2022-12-29T16:55:24;9.80;99.90
26182;DHT22;13927;51.534;11.866;2022-12-29T16:57:51;9.90;99.90
26182;DHT22;13927;51.534;11.866;2022-12-29T17:00:22;9.90;99.90
26182;DHT22;13927;51.534;11.866;2022-12-29T17:02:52;9.90;99.90
26182;DHT22;13927;51.534;11.866;2022-12-29T17:05:20;9.90;99.90
26182;DHT22;13927;51.534;11.866;2022-12-29T17:07:46;10.00;99.90
26182;DHT22;13927;51.534;11.866;2022-12-29T17:10:12;10.00;99.90
26182;DHT22;13927;51.534;11.866;2022-12-29T17:12:43;10.00;99.90
26182;DHT22;13927;51.534;11.866;2022-12-29T17:15:21;10.00;99.90
26182;DHT22;13927;51.534;11.866;2022-12-29T17:17:52;10.00;99.90
26182;DHT22;13927;51.534;11.866;2022-12-29T17:20:24;10.00;99.90
26182;DHT22;13927;51.534;11.866;2022-12-29T17:22:55;10.10;99.90
26182;DHT22;13927;51.534;11.866;2022-12-29T17:28:01;10.00;99.90
26182;DHT22;13927;51.534;11.866;2022-12-29T17:30:29;10.00;99.90
26182;DHT22;13927;51.534;11.866;2022-12-29T17:33:02;10.00;99.90
26182;DHT22;13927;51.534;11.866;2022-12-29T17:35:29;10.00;99.90
26182;DHT22;13927;51.534;11.866;2022-12-29T17:37:54;10.00;99.90
26182;DHT22;13927;51.534;11.866;2022-12-29T17:40:28;9.90;99.90
26182;DHT22;13927;51.534;11.866;2022-12-29T17:42:57;9.90;99.90
26182;DHT22;13927;51.534;11.866;2022-12-29T17:45:27;9.80;99.90
26182;DHT22;13927;51.534;11.866;2022-12-29T17:47:54;9.80;99.90
26182;DHT22;13927;51.534;11.866;2022-12-29T17:50:23;9.70;99.90
26182;DHT22;13927;51.534;11.866;2022-12-29T17:52:57;9.70;99.90
26182;DHT22;13927;51.534;11.866;2022-12-29T17:55:36;9.60;99.90
26182;DHT22;13927;51.534;11.866;2022-12-29T17:58:07;9.60;99.90
26182;DHT22;13927;51.534;11.866;2022-12-29T18:01:00;9.60;99.90
26182;DHT22;13927;51.534;11.866;2022-12-29T18:03:33;9.50;99.90
26182;DHT22;13927;51.534;11.866;2022-12-29T18:06:03;9.40;99.90
26182;DHT22;13927;51.534;11.866;2022-12-29T18:08:31;9.30;99.90
26182;DHT22;13927;51.534;11.866;2022-12-29T18:10:58;9.30;99.90
26182;DHT22;13927;51.534;11.866;2022-12-29T18:13:29;9.20;99.90
26182;DHT22;13927;51.534;11.866;2022-12-29T18:15:56;9.10;99.90
26182;DHT22;13927;51.534;11.866;2022-12-29T18:18:24;9.10;99.90